createdAt,value
2023-11-30T00:00:35.060Z,10.82
2023-11-30T00:03:01.525Z,8.13
2023-11-30T00:05:28.232Z,9.88
2023-11-30T00:07:54.602Z,11.38
2023-11-30T00:10:20.974Z,12.77
2023-11-30T00:12:47.434Z,10.05
2023-11-30T00:15:14.165Z,11.60
2023-11-30T00:17:40.649Z,8.88
2023-11-30T00:20:07.846Z,10.73
2023-11-30T00:22:34.221Z,10.75
2023-11-30T00:25:00.701Z,13.20
2023-11-30T00:27:27.074Z,11.68
2023-11-30T00:29:53.477Z,12.32
2023-11-30T00:32:19.834Z,9.05
2023-11-30T00:34:46.179Z,10.52
2023-11-30T00:37:12.610Z,9.85
2023-11-30T00:39:38.995Z,10.55
2023-11-30T00:42:05.648Z,10.88
2023-11-30T00:44:32.221Z,12.07
2023-11-30T00:46:58.571Z,10.75
2023-11-30T00:49:24.936Z,10.50
2023-11-30T00:51:51.314Z,10.63
2023-11-30T00:54:17.737Z,9.55
2023-11-30T00:56:44.170Z,9.77
2023-11-30T00:59:10.569Z,11.73
2023-11-30T01:01:36.960Z,12.98
2023-11-30T01:04:03.448Z,13.65
2023-11-30T01:06:29.865Z,11.27
2023-11-30T01:08:56.271Z,12.05
2023-11-30T01:11:22.621Z,10.77
2023-11-30T01:13:48.989Z,11.50
2023-11-30T01:16:15.456Z,11.82
2023-11-30T01:18:41.939Z,9.95
2023-11-30T01:21:08.634Z,10.85
2023-11-30T01:23:35.015Z,10.77
2023-11-30T01:26:02.284Z,11.07
2023-11-30T01:28:28.612Z,9.73
2023-11-30T01:30:55.036Z,12.65
2023-11-30T01:33:21.537Z,11.63
2023-11-30T01:35:47.897Z,10.68
2023-11-30T01:38:14.241Z,10.35
2023-11-30T01:40:40.635Z,10.88
2023-11-30T01:43:07.166Z,9.60
2023-11-30T01:45:33.556Z,9.95
2023-11-30T01:48:00.545Z,11.93
2023-11-30T01:50:27.542Z,12.07
2023-11-30T01:52:53.972Z,11.57
2023-11-30T01:55:20.594Z,9.80
2023-11-30T01:57:47.254Z,8.93
2023-11-30T02:00:14.636Z,10.60
2023-11-30T02:02:41.101Z,10.70
2023-11-30T02:05:07.818Z,12.20
2023-11-30T02:07:34.287Z,10.18
2023-11-30T02:10:00.741Z,10.95
2023-11-30T02:12:27.167Z,9.23
2023-11-30T02:14:53.607Z,9.30
2023-11-30T02:17:19.974Z,9.73
2023-11-30T02:19:46.398Z,8.38
2023-11-30T02:22:12.797Z,9.02
2023-11-30T02:24:39.158Z,9.82
2023-11-30T02:27:05.727Z,10.98
2023-11-30T02:29:32.099Z,8.60
2023-11-30T02:31:58.534Z,11.75
2023-11-30T02:34:24.902Z,10.15
2023-11-30T02:36:51.351Z,10.02
2023-11-30T02:39:17.770Z,9.95
2023-11-30T02:41:44.225Z,9.52
2023-11-30T02:44:10.575Z,11.77
2023-11-30T02:46:37.076Z,9.77
2023-11-30T02:49:03.446Z,8.95
2023-11-30T02:51:29.907Z,10.50
2023-11-30T02:53:56.358Z,9.20
2023-11-30T02:56:22.789Z,10.20
2023-11-30T02:58:49.199Z,10.65
2023-11-30T03:01:15.660Z,9.27
2023-11-30T03:03:42.179Z,7.38
2023-11-30T03:06:12.682Z,11.60
2023-11-30T03:08:39.325Z,9.65
2023-11-30T03:11:05.900Z,9.20
2023-11-30T03:13:32.299Z,9.50
2023-11-30T03:15:58.672Z,13.05
2023-11-30T03:18:25.229Z,8.45
2023-11-30T03:20:51.730Z,10.50
2023-11-30T03:23:18.184Z,9.27
2023-11-30T03:25:44.550Z,10.98
2023-11-30T03:28:10.942Z,9.88
2023-11-30T03:30:37.344Z,10.45
2023-11-30T03:33:04.151Z,7.68
2023-11-30T03:35:30.566Z,9.98
2023-11-30T03:37:56.893Z,10.30
2023-11-30T03:40:23.266Z,10.90
2023-11-30T03:42:49.605Z,9.55
2023-11-30T03:45:16.043Z,9.18
2023-11-30T03:47:42.430Z,9.07
2023-11-30T03:50:09.159Z,10.50
2023-11-30T03:52:35.561Z,8.90
2023-11-30T03:55:01.941Z,10.65
2023-11-30T03:57:28.400Z,11.35
2023-11-30T03:59:54.765Z,10.55
2023-11-30T04:02:21.502Z,10.27
2023-11-30T04:04:47.931Z,10.23
2023-11-30T04:07:14.343Z,11.13
2023-11-30T04:09:40.804Z,10.88
2023-11-30T04:12:07.607Z,9.73
2023-11-30T04:14:33.994Z,10.85
2023-11-30T04:17:03.425Z,11.70
2023-11-30T04:19:31.094Z,10.20
2023-11-30T04:21:57.453Z,10.48
2023-11-30T04:24:23.892Z,10.07
2023-11-30T04:26:50.460Z,11.27
2023-11-30T04:29:16.781Z,9.65
2023-11-30T04:31:43.214Z,11.60
2023-11-30T04:34:09.654Z,10.82
2023-11-30T04:36:36.114Z,11.75
2023-11-30T04:39:02.539Z,9.95
2023-11-30T04:41:28.949Z,9.85
2023-11-30T04:43:55.309Z,11.43
2023-11-30T04:46:21.698Z,9.75
2023-11-30T04:48:48.383Z,9.55
2023-11-30T04:51:14.854Z,9.18
2023-11-30T04:53:41.211Z,10.93
2023-11-30T04:56:08.036Z,9.75
2023-11-30T04:58:34.404Z,9.90
2023-11-30T05:01:01.050Z,10.25
2023-11-30T05:03:27.595Z,8.82
2023-11-30T05:05:54.010Z,8.95
2023-11-30T05:08:20.452Z,8.15
2023-11-30T05:10:46.780Z,9.10
2023-11-30T05:13:13.252Z,7.90
2023-11-30T05:15:39.690Z,10.05
2023-11-30T05:18:07.063Z,8.18
2023-11-30T05:20:34.409Z,12.40
2023-11-30T05:23:00.815Z,9.20
2023-11-30T05:25:27.184Z,9.20
2023-11-30T05:27:53.556Z,8.27
2023-11-30T05:30:20.083Z,8.07
2023-11-30T05:32:46.481Z,10.27
2023-11-30T05:35:12.882Z,9.00
2023-11-30T05:37:39.341Z,10.20
2023-11-30T05:40:06.364Z,10.00
2023-11-30T05:42:32.722Z,9.65
2023-11-30T05:44:59.135Z,9.32
2023-11-30T05:47:25.555Z,13.50
2023-11-30T05:49:52.436Z,9.38
2023-11-30T05:52:18.883Z,11.20
2023-11-30T05:54:45.710Z,13.30
2023-11-30T05:57:12.269Z,11.02
2023-11-30T05:59:39.058Z,10.60
2023-11-30T06:02:05.618Z,10.73
2023-11-30T06:04:32.934Z,10.25
2023-11-30T06:06:59.475Z,10.48
2023-11-30T06:09:25.972Z,10.68
2023-11-30T06:11:52.384Z,15.75
2023-11-30T06:14:19.321Z,10.80
2023-11-30T06:16:46.058Z,11.80
2023-11-30T06:19:13.581Z,10.75
2023-11-30T06:21:40.516Z,11.95
2023-11-30T06:24:07.013Z,10.05
2023-11-30T06:26:33.596Z,11.05
2023-11-30T06:29:00.145Z,13.73
2023-11-30T06:31:26.523Z,10.75
2023-11-30T06:33:52.964Z,11.70
2023-11-30T06:36:19.330Z,11.32
2023-11-30T06:38:45.691Z,9.75
2023-11-30T06:41:13.672Z,11.80
2023-11-30T06:43:40.908Z,11.32
2023-11-30T06:46:08.880Z,11.40
2023-11-30T06:51:02.174Z,10.57
2023-11-30T06:53:28.533Z,14.05
2023-11-30T06:55:54.908Z,11.98
2023-11-30T06:58:21.268Z,10.90
2023-11-30T07:00:47.762Z,12.07
2023-11-30T07:03:14.344Z,12.20
2023-11-30T07:05:41.644Z,12.82
2023-11-30T07:08:07.987Z,11.57
2023-11-30T07:10:34.417Z,12.02
2023-11-30T07:13:00.830Z,12.98
2023-11-30T07:15:27.237Z,11.40
2023-11-30T07:17:53.629Z,12.32
2023-11-30T07:20:21.182Z,13.63
2023-11-30T07:22:47.528Z,13.60
2023-11-30T07:25:13.877Z,12.60
2023-11-30T07:27:40.393Z,11.98
2023-11-30T07:30:10.812Z,14.70
2023-11-30T07:32:37.783Z,13.82
2023-11-30T07:35:05.356Z,13.48
2023-11-30T07:37:31.743Z,11.02
2023-11-30T07:39:58.099Z,14.98
2023-11-30T07:42:32.705Z,13.57
2023-11-30T07:45:04.092Z,15.10
2023-11-30T07:47:30.746Z,14.23
2023-11-30T07:49:57.194Z,15.48
2023-11-30T07:52:23.538Z,17.65
2023-11-30T07:54:49.920Z,14.23
2023-11-30T07:57:16.353Z,15.05
2023-11-30T07:59:42.823Z,19.90
2023-11-30T08:02:09.225Z,17.40
2023-11-30T08:04:38.752Z,15.05
2023-11-30T08:07:05.716Z,16.88
2023-11-30T08:09:32.203Z,17.70
2023-11-30T08:11:58.973Z,14.00
2023-11-30T08:14:25.304Z,16.23
2023-11-30T08:16:51.719Z,13.70
2023-11-30T08:19:18.107Z,14.90
2023-11-30T08:21:44.495Z,15.05
2023-11-30T08:24:14.797Z,13.60
2023-11-30T08:26:41.141Z,15.15
2023-11-30T08:29:08.082Z,13.18
2023-11-30T08:31:34.588Z,14.27
2023-11-30T08:34:02.016Z,15.63
2023-11-30T08:36:28.538Z,14.13
2023-11-30T08:38:54.936Z,14.02
2023-11-30T08:41:21.290Z,10.30
2023-11-30T08:43:50.871Z,11.98
2023-11-30T08:46:17.233Z,15.75
2023-11-30T08:48:45.591Z,17.48
2023-11-30T08:51:12.475Z,14.80
2023-11-30T08:53:38.816Z,13.07
2023-11-30T08:56:06.760Z,14.65
2023-11-30T08:58:33.131Z,14.02
2023-11-30T09:00:59.515Z,13.60
2023-11-30T09:03:25.939Z,17.65
2023-11-30T09:05:52.301Z,13.30
2023-11-30T09:08:21.073Z,14.52
2023-11-30T09:10:47.904Z,11.75
2023-11-30T09:13:14.294Z,14.50
2023-11-30T09:15:40.677Z,17.77
2023-11-30T09:18:07.174Z,12.80
2023-11-30T09:20:34.922Z,19.88
2023-11-30T09:23:01.337Z,15.52
2023-11-30T09:25:27.969Z,17.15
2023-11-30T09:27:55.697Z,13.77
2023-11-30T09:30:22.304Z,15.63
2023-11-30T09:32:51.754Z,20.33
2023-11-30T09:37:44.415Z,12.02
2023-11-30T09:40:11.076Z,15.00
2023-11-30T09:42:39.245Z,14.18
2023-11-30T09:45:06.071Z,12.55
2023-11-30T09:47:32.657Z,14.05
2023-11-30T09:49:59.643Z,13.60
2023-11-30T09:52:26.519Z,14.68
2023-11-30T09:54:52.880Z,14.85
2023-11-30T09:57:19.704Z,13.90
2023-11-30T09:59:46.102Z,11.60
2023-11-30T10:02:12.585Z,11.55
2023-11-30T10:04:40.543Z,11.48
2023-11-30T10:07:06.898Z,13.63
2023-11-30T10:09:34.085Z,11.82
2023-11-30T10:12:02.468Z,9.93
2023-11-30T10:14:28.839Z,14.32
2023-11-30T10:16:56.039Z,11.18
2023-11-30T10:19:22.909Z,10.23
2023-11-30T10:21:50.722Z,11.80
2023-11-30T10:24:17.078Z,11.02
2023-11-30T10:26:43.929Z,12.30
2023-11-30T10:29:17.988Z,11.57
2023-11-30T10:31:47.941Z,11.45
2023-11-30T10:34:21.511Z,12.88
2023-11-30T10:36:47.954Z,20.40
2023-11-30T10:39:14.489Z,13.85
2023-11-30T10:41:50.621Z,9.63
2023-11-30T10:44:22.529Z,11.00
2023-11-30T10:46:52.018Z,13.23
2023-11-30T10:49:19.416Z,9.82
2023-11-30T10:51:45.918Z,10.52
2023-11-30T10:54:24.716Z,10.68
2023-11-30T10:56:52.005Z,12.20
2023-11-30T10:59:18.367Z,11.48
2023-11-30T11:01:45.309Z,15.02
2023-11-30T11:04:16.440Z,13.32
2023-11-30T11:06:43.121Z,18.88
2023-11-30T11:09:10.891Z,12.07
2023-11-30T11:11:42.846Z,10.50
2023-11-30T11:14:09.181Z,12.27
2023-11-30T11:16:38.371Z,10.88
2023-11-30T11:19:05.981Z,11.40
2023-11-30T11:21:39.373Z,10.13
2023-11-30T11:24:08.376Z,9.98
2023-11-30T11:26:48.462Z,12.43
2023-11-30T11:29:21.286Z,11.57
2023-11-30T11:31:53.905Z,11.80
2023-11-30T11:34:20.532Z,8.88
2023-11-30T11:36:46.997Z,9.23
2023-11-30T11:39:13.392Z,11.13
2023-11-30T11:41:41.774Z,10.38
2023-11-30T11:44:08.183Z,9.52
2023-11-30T11:46:34.553Z,9.95
2023-11-30T11:49:00.996Z,11.95
2023-11-30T11:51:29.193Z,11.77
2023-11-30T11:53:55.944Z,10.20
2023-11-30T11:56:23.119Z,10.30
2023-11-30T11:58:51.627Z,13.55
2023-11-30T12:01:18.022Z,9.93
2023-11-30T12:03:50.481Z,11.05
2023-11-30T12:06:28.478Z,10.52
2023-11-30T12:08:54.864Z,8.73
2023-11-30T12:11:21.472Z,10.18
2023-11-30T12:13:54.902Z,7.25
2023-11-30T12:16:21.282Z,11.05
2023-11-30T12:18:47.884Z,7.53
2023-11-30T12:21:14.305Z,9.20
2023-11-30T12:23:41.258Z,9.32
2023-11-30T12:26:07.871Z,11.25
2023-11-30T12:28:34.577Z,9.80
2023-11-30T12:31:01.108Z,11.18
2023-11-30T12:33:27.774Z,9.57
2023-11-30T12:35:54.420Z,12.65
2023-11-30T12:38:20.862Z,28.38
2023-11-30T12:40:47.195Z,25.08
2023-11-30T12:43:13.603Z,13.40
2023-11-30T12:45:40.030Z,12.52
2023-11-30T12:48:06.471Z,15.50
2023-11-30T12:50:34.435Z,11.45
2023-11-30T12:53:01.037Z,9.77
2023-11-30T12:55:27.552Z,13.63
2023-11-30T12:57:54.083Z,15.38
2023-11-30T13:00:20.497Z,9.57
2023-11-30T13:02:47.363Z,11.00
2023-11-30T13:05:14.863Z,22.10
2023-11-30T13:07:41.482Z,11.18
2023-11-30T13:10:12.250Z,9.68
2023-11-30T13:12:39.241Z,9.95
2023-11-30T13:15:06.063Z,13.68
2023-11-30T13:17:32.463Z,12.88
2023-11-30T13:19:58.819Z,12.73
2023-11-30T13:22:25.150Z,10.48
2023-11-30T13:24:51.553Z,12.82
2023-11-30T13:27:17.958Z,9.98
2023-11-30T13:29:44.319Z,10.30
2023-11-30T13:32:13.237Z,10.77
2023-11-30T13:34:39.749Z,13.07
2023-11-30T13:37:06.637Z,12.07
2023-11-30T13:39:33.051Z,12.05
2023-11-30T13:41:59.818Z,11.68
2023-11-30T13:44:26.337Z,11.82
2023-11-30T13:46:53.932Z,16.00
2023-11-30T13:49:20.425Z,10.90
2023-11-30T13:51:47.212Z,12.32
2023-11-30T13:54:15.460Z,14.30
2023-11-30T13:56:41.886Z,20.48
2023-11-30T13:59:08.484Z,10.60
2023-11-30T14:01:35.306Z,14.07
2023-11-30T14:04:01.893Z,11.05
2023-11-30T14:06:28.346Z,10.73
2023-11-30T14:08:54.704Z,10.57
2023-11-30T14:11:21.021Z,9.63
2023-11-30T14:13:47.449Z,11.43
2023-11-30T14:16:13.896Z,11.68
2023-11-30T14:18:40.498Z,10.32
2023-11-30T14:21:07.024Z,13.70
2023-11-30T14:23:33.379Z,12.82
2023-11-30T14:25:59.739Z,13.35
2023-11-30T14:28:26.248Z,10.18
2023-11-30T14:30:53.506Z,15.20
2023-11-30T14:33:19.959Z,12.68
2023-11-30T14:35:49.758Z,11.95
2023-11-30T14:38:16.113Z,12.93
2023-11-30T14:40:42.438Z,13.07
2023-11-30T14:43:08.838Z,13.25
2023-11-30T14:45:35.428Z,12.70
2023-11-30T14:48:01.947Z,12.73
2023-11-30T14:50:28.307Z,13.25
2023-11-30T14:52:54.801Z,10.13
2023-11-30T14:55:21.226Z,11.95
2023-11-30T14:57:47.699Z,16.90
2023-11-30T15:00:14.675Z,14.70
2023-11-30T15:02:41.623Z,19.60
2023-11-30T15:05:08.312Z,13.80
2023-11-30T15:07:34.678Z,11.95
2023-11-30T15:10:01.115Z,11.45
2023-11-30T15:12:27.540Z,11.95
2023-11-30T15:14:53.948Z,15.13
2023-11-30T15:17:20.640Z,11.55
2023-11-30T15:19:46.992Z,14.00
2023-11-30T15:22:13.394Z,13.05
2023-11-30T15:24:40.094Z,14.35
2023-11-30T15:27:06.583Z,13.85
2023-11-30T15:29:32.981Z,13.40
2023-11-30T15:31:59.486Z,11.38
2023-11-30T15:34:25.852Z,15.07
2023-11-30T15:36:52.333Z,15.20
2023-11-30T15:39:18.718Z,20.60
2023-11-30T15:41:46.678Z,15.13
2023-11-30T15:44:13.175Z,17.25
2023-11-30T15:46:44.535Z,17.55
2023-11-30T15:49:11.134Z,13.23
2023-11-30T15:51:41.009Z,15.95
2023-11-30T15:54:07.414Z,15.35
2023-11-30T15:56:33.998Z,18.52
2023-11-30T15:59:00.843Z,17.70
2023-11-30T16:01:27.396Z,19.50
2023-11-30T16:03:56.640Z,16.38
2023-11-30T16:06:27.159Z,17.67
2023-11-30T16:08:53.558Z,19.08
2023-11-30T16:11:20.152Z,14.80
2023-11-30T16:13:46.579Z,16.15
2023-11-30T16:16:13.101Z,13.07
2023-11-30T16:18:40.726Z,14.65
2023-11-30T16:21:14.145Z,14.32
2023-11-30T16:23:40.601Z,14.52
2023-11-30T16:26:07.105Z,14.90
2023-11-30T16:28:33.519Z,15.95
2023-11-30T16:30:59.953Z,16.42
2023-11-30T16:33:28.129Z,13.30
2023-11-30T16:35:55.127Z,13.80
2023-11-30T16:38:21.560Z,16.38
2023-11-30T16:40:47.898Z,15.23
2023-11-30T16:43:14.254Z,15.88
2023-11-30T16:45:40.623Z,16.00
2023-11-30T16:48:07.152Z,13.85
2023-11-30T16:50:33.493Z,14.50
2023-11-30T16:52:59.908Z,11.50
2023-11-30T16:55:26.324Z,13.27
2023-11-30T16:57:52.801Z,14.75
2023-11-30T17:00:19.499Z,12.90
2023-11-30T17:02:46.135Z,15.23
2023-11-30T17:05:12.574Z,14.95
2023-11-30T17:07:39.401Z,17.40
2023-11-30T17:10:06.176Z,13.68
2023-11-30T17:12:32.608Z,15.07
2023-11-30T17:15:00.399Z,15.43
2023-11-30T17:17:26.753Z,11.35
2023-11-30T17:19:53.108Z,15.48
2023-11-30T17:22:19.493Z,14.25
2023-11-30T17:24:45.880Z,13.32
2023-11-30T17:27:13.452Z,14.48
2023-11-30T17:29:39.820Z,13.80
2023-11-30T17:32:10.124Z,16.73
2023-11-30T17:34:37.520Z,16.90
2023-11-30T17:37:04.143Z,14.75
2023-11-30T17:39:30.808Z,15.77
2023-11-30T17:41:57.597Z,18.13
2023-11-30T17:44:23.995Z,17.73
2023-11-30T17:46:50.371Z,17.92
2023-11-30T17:49:17.416Z,15.40
2023-11-30T17:51:43.779Z,22.08
2023-11-30T17:54:10.264Z,38.80
2023-11-30T17:56:36.619Z,27.67
2023-11-30T17:59:02.985Z,16.33
2023-11-30T18:01:29.438Z,20.05
2023-11-30T18:03:55.912Z,20.75
2023-11-30T18:06:22.463Z,21.05
2023-11-30T18:08:48.911Z,17.75
2023-11-30T18:11:15.265Z,17.38
2023-11-30T18:13:41.637Z,18.27
2023-11-30T18:16:08.751Z,20.52
2023-11-30T18:18:35.190Z,20.45
2023-11-30T18:21:01.617Z,18.50
2023-11-30T18:23:28.277Z,18.92
2023-11-30T18:25:54.622Z,16.73
2023-11-30T18:28:21.117Z,20.33
2023-11-30T18:30:47.630Z,20.70
2023-11-30T18:33:14.172Z,21.55
2023-11-30T18:35:40.604Z,21.20
2023-11-30T18:38:07.798Z,24.65
2023-11-30T18:40:34.681Z,21.20
2023-11-30T18:43:01.134Z,21.58
2023-11-30T18:45:27.594Z,17.88
2023-11-30T18:47:54.003Z,19.40
2023-11-30T18:50:20.422Z,18.30
2023-11-30T18:52:47.194Z,18.63
2023-11-30T18:55:13.841Z,21.52
2023-11-30T18:57:40.337Z,18.60
2023-11-30T19:00:08.662Z,18.52
2023-11-30T19:02:35.382Z,22.85
2023-11-30T19:05:01.835Z,17.95
2023-11-30T19:07:29.479Z,19.05
2023-11-30T19:09:57.083Z,17.45
2023-11-30T19:12:23.545Z,17.65
2023-11-30T19:14:49.943Z,17.50
2023-11-30T19:17:16.438Z,25.67
2023-11-30T19:19:42.803Z,24.08
2023-11-30T19:22:09.130Z,21.63
2023-11-30T19:24:35.759Z,19.27
2023-11-30T19:27:02.139Z,19.70
2023-11-30T19:29:28.554Z,17.90
2023-11-30T19:31:54.998Z,22.05
2023-11-30T19:34:21.855Z,17.55
2023-11-30T19:36:48.205Z,18.52
2023-11-30T19:39:14.672Z,20.27
2023-11-30T19:41:43.020Z,19.40
2023-11-30T19:44:10.149Z,19.38
2023-11-30T19:46:36.500Z,20.00
2023-11-30T19:49:02.953Z,19.33
2023-11-30T19:51:29.379Z,18.02
2023-11-30T19:53:55.809Z,22.55
2023-11-30T19:56:22.305Z,25.70
2023-11-30T19:58:48.710Z,24.55
2023-11-30T20:01:21.312Z,26.60
2023-11-30T20:03:48.072Z,26.98
2023-11-30T20:06:15.399Z,31.52
2023-11-30T20:08:41.930Z,30.27
2023-11-30T20:11:08.636Z,35.15
2023-11-30T20:13:34.982Z,27.55
2023-11-30T20:16:01.418Z,23.92
2023-11-30T20:18:28.431Z,23.77
2023-11-30T20:20:54.828Z,24.52
2023-11-30T20:23:21.207Z,23.42
2023-11-30T20:25:47.808Z,26.60
2023-11-30T20:28:14.142Z,20.75
2023-11-30T20:30:40.588Z,20.67
2023-11-30T20:33:07.093Z,23.02
2023-11-30T20:35:33.482Z,26.45
2023-11-30T20:38:01.079Z,23.02
2023-11-30T20:40:27.443Z,23.95
2023-11-30T20:42:54.149Z,27.35
2023-11-30T20:45:20.557Z,18.23
2023-11-30T20:47:46.959Z,16.30
2023-11-30T20:50:13.424Z,16.50
2023-11-30T20:52:39.773Z,22.95
2023-11-30T20:55:06.623Z,22.48
2023-11-30T20:57:33.069Z,20.85
2023-11-30T20:59:59.433Z,18.05
2023-11-30T21:02:25.910Z,21.30
2023-11-30T21:04:52.290Z,23.17
2023-11-30T21:07:18.775Z,20.45
2023-11-30T21:09:45.221Z,20.42
2023-11-30T21:12:14.042Z,20.55
2023-11-30T21:14:41.952Z,20.35
2023-11-30T21:17:08.381Z,17.85
2023-11-30T21:19:34.800Z,18.63
2023-11-30T21:22:01.308Z,23.85
2023-11-30T21:24:27.790Z,21.30
2023-11-30T21:26:54.135Z,22.55
2023-11-30T21:29:20.469Z,28.00
2023-11-30T21:31:46.961Z,33.38
2023-11-30T21:34:13.949Z,31.40
2023-11-30T21:36:40.634Z,24.90
2023-11-30T21:39:07.678Z,23.25
2023-11-30T21:41:34.019Z,24.20
2023-11-30T21:44:00.443Z,27.63
2023-11-30T21:46:26.786Z,21.98
2023-11-30T21:48:53.394Z,22.48
2023-11-30T21:51:19.767Z,26.10
2023-11-30T21:53:47.450Z,26.35
2023-11-30T21:56:13.784Z,24.23
2023-11-30T21:58:40.457Z,22.88
2023-11-30T22:01:07.455Z,17.52
2023-11-30T22:03:36.151Z,23.25
2023-11-30T22:06:02.685Z,21.92
2023-11-30T22:08:29.294Z,22.48
2023-11-30T22:10:55.779Z,21.42
2023-11-30T22:13:22.442Z,23.80
2023-11-30T22:15:55.263Z,19.77
2023-11-30T22:18:28.392Z,20.42
2023-11-30T22:20:54.764Z,21.52
2023-11-30T22:23:21.096Z,20.50
2023-11-30T22:25:53.332Z,25.13
2023-11-30T22:28:22.503Z,24.70
2023-11-30T22:30:49.017Z,24.70
2023-11-30T22:33:15.373Z,23.45
2023-11-30T22:35:41.743Z,22.15
2023-11-30T22:38:09.280Z,24.58
2023-11-30T22:40:35.604Z,22.25
2023-11-30T22:43:01.981Z,24.58
2023-11-30T22:45:28.427Z,20.77
2023-11-30T22:47:54.866Z,20.15
2023-11-30T22:50:21.295Z,22.17
2023-11-30T22:52:47.809Z,21.75
2023-11-30T22:55:14.375Z,18.63
2023-11-30T22:57:40.865Z,19.90
2023-11-30T23:00:09.506Z,19.33
2023-11-30T23:02:36.158Z,25.08
2023-11-30T23:05:02.768Z,24.48
2023-11-30T23:07:29.288Z,22.33
2023-11-30T23:09:55.673Z,20.33
2023-11-30T23:12:22.146Z,21.40
2023-11-30T23:14:48.521Z,22.30
2023-11-30T23:17:14.863Z,23.30
2023-11-30T23:19:41.273Z,23.98
2023-11-30T23:22:07.683Z,25.15
2023-11-30T23:24:34.088Z,22.27
2023-11-30T23:27:00.556Z,22.30
2023-11-30T23:29:26.920Z,18.17
2023-11-30T23:31:54.159Z,25.33
2023-11-30T23:34:20.593Z,21.90
2023-11-30T23:36:47.021Z,21.27
2023-11-30T23:39:13.362Z,21.85
2023-11-30T23:41:39.738Z,23.70
2023-11-30T23:44:06.122Z,21.10
2023-11-30T23:46:32.613Z,22.35
2023-11-30T23:48:59.134Z,18.23
2023-11-30T23:51:25.744Z,20.50
2023-11-30T23:53:52.167Z,19.63
2023-11-30T23:56:18.555Z,22.55
2023-11-30T23:58:45.086Z,21.00
